sensor_id;sensor_type;location;lat;lon;timestamp;temperature;humidity
49132;DHT22;35149;51.196;6.204;2023-06-22T00:00:36;24.40;55.10
49132;DHT22;35149;51.196;6.204;2023-06-22T00:03:02;24.40;55.10
49132;DHT22;35149;51.196;6.204;2023-06-22T00:05:31;24.40;55.00
49132;DHT22;35149;51.196;6.204;2023-06-22T00:08:01;24.40;55.00
49132;DHT22;35149;51.196;6.204;2023-06-22T00:10:28;24.30;54.90
49132;DHT22;35149;51.196;6.204;2023-06-22T00:12:55;24.30;54.80
49132;DHT22;35149;51.196;6.204;2023-06-22T00:15:22;24.30;54.80
49132;DHT22;35149;51.196;6.204;2023-06-22T00:17:51;24.20;54.90
49132;DHT22;35149;51.196;6.204;2023-06-22T00:20:18;24.20;55.00
49132;DHT22;35149;51.196;6.204;2023-06-22T00:22:48;24.20;55.00
49132;DHT22;35149;51.196;6.204;2023-06-22T00:25:17;24.10;55.70
49132;DHT22;35149;51.196;6.204;2023-06-22T00:27:44;24.10;55.10
49132;DHT22;35149;51.196;6.204;2023-06-22T00:30:11;24.00;55.10
49132;DHT22;35149;51.196;6.204;2023-06-22T00:32:43;24.00;55.20
49132;DHT22;35149;51.196;6.204;2023-06-22T00:35:13;24.00;55.30
49132;DHT22;35149;51.196;6.204;2023-06-22T00:37:42;23.90;55.30
49132;DHT22;35149;51.196;6.204;2023-06-22T00:40:13;23.80;55.40
49132;DHT22;35149;51.196;6.204;2023-06-22T00:42:43;23.80;55.60
49132;DHT22;35149;51.196;6.204;2023-06-22T00:45:10;23.80;55.70
49132;DHT22;35149;51.196;6.204;2023-06-22T00:47:37;23.80;55.70
49132;DHT22;35149;51.196;6.204;2023-06-22T00:50:08;23.70;55.80
49132;DHT22;35149;51.196;6.204;2023-06-22T00:52:38;23.70;55.80
49132;DHT22;35149;51.196;6.204;2023-06-22T00:55:10;23.70;55.90
49132;DHT22;35149;51.196;6.204;2023-06-22T00:57:48;23.70;55.80
49132;DHT22;35149;51.196;6.204;2023-06-22T01:00:15;23.60;56.40
49132;DHT22;35149;51.196;6.204;2023-06-22T01:02:49;23.60;56.10
49132;DHT22;35149;51.196;6.204;2023-06-22T01:05:19;23.60;56.30
49132;DHT22;35149;51.196;6.204;2023-06-22T01:13:41;23.60;57.10
49132;DHT22;35149;51.196;6.204;2023-06-22T01:16:31;23.70;57.50
49132;DHT22;35149;51.196;6.204;2023-06-22T01:19:04;23.70;57.40
49132;DHT22;35149;51.196;6.204;2023-06-22T01:21:32;23.70;57.30
49132;DHT22;35149;51.196;6.204;2023-06-22T01:24:23;23.70;57.10
49132;DHT22;35149;51.196;6.204;2023-06-22T01:29:36;23.80;57.50
49132;DHT22;35149;51.196;6.204;2023-06-22T01:32:06;23.80;57.10
49132;DHT22;35149;51.196;6.204;2023-06-22T01:34:38;23.80;57.00
49132;DHT22;35149;51.196;6.204;2023-06-22T01:37:12;23.90;57.00
49132;DHT22;35149;51.196;6.204;2023-06-22T01:39:42;23.90;57.20
49132;DHT22;35149;51.196;6.204;2023-06-22T01:42:14;23.90;57.10
49132;DHT22;35149;51.196;6.204;2023-06-22T01:44:43;24.00;57.40
49132;DHT22;35149;51.196;6.204;2023-06-22T01:47:10;23.90;57.20
49132;DHT22;35149;51.196;6.204;2023-06-22T01:49:40;24.00;57.90
49132;DHT22;35149;51.196;6.204;2023-06-22T01:52:07;24.00;57.30
49132;DHT22;35149;51.196;6.204;2023-06-22T01:54:34;24.00;57.40
49132;DHT22;35149;51.196;6.204;2023-06-22T01:57:03;24.00;57.40
49132;DHT22;35149;51.196;6.204;2023-06-22T01:59:37;24.00;57.20
49132;DHT22;35149;51.196;6.204;2023-06-22T02:02:10;24.00;57.60
49132;DHT22;35149;51.196;6.204;2023-06-22T02:04:51;23.90;57.70
49132;DHT22;35149;51.196;6.204;2023-06-22T02:07:29;24.00;58.30
49132;DHT22;35149;51.196;6.204;2023-06-22T02:10:05;24.00;58.20
49132;DHT22;35149;51.196;6.204;2023-06-22T02:12:34;24.00;57.90
49132;DHT22;35149;51.196;6.204;2023-06-22T02:15:01;23.90;58.00
49132;DHT22;35149;51.196;6.204;2023-06-22T02:17:29;24.00;58.30
49132;DHT22;35149;51.196;6.204;2023-06-22T02:20:02;24.00;58.40
49132;DHT22;35149;51.196;6.204;2023-06-22T02:22:31;24.00;58.30
49132;DHT22;35149;51.196;6.204;2023-06-22T02:24:57;24.00;58.20
49132;DHT22;35149;51.196;6.204;2023-06-22T02:27:29;23.90;57.80
49132;DHT22;35149;51.196;6.204;2023-06-22T02:29:59;24.00;58.10
49132;DHT22;35149;51.196;6.204;2023-06-22T02:32:27;23.90;58.20
49132;DHT22;35149;51.196;6.204;2023-06-22T02:35:06;23.90;58.20
49132;DHT22;35149;51.196;6.204;2023-06-22T02:37:33;24.00;58.40
49132;DHT22;35149;51.196;6.204;2023-06-22T02:39:59;23.90;58.40
49132;DHT22;35149;51.196;6.204;2023-06-22T02:42:28;23.90;58.50
49132;DHT22;35149;51.196;6.204;2023-06-22T02:44:58;23.90;58.60
49132;DHT22;35149;51.196;6.204;2023-06-22T02:47:25;23.90;58.50
49132;DHT22;35149;51.196;6.204;2023-06-22T02:49:52;23.90;58.70
49132;DHT22;35149;51.196;6.204;2023-06-22T02:52:19;23.90;58.50
49132;DHT22;35149;51.196;6.204;2023-06-22T02:54:48;23.80;58.50
49132;DHT22;35149;51.196;6.204;2023-06-22T02:57:15;24.00;58.60
49132;DHT22;35149;51.196;6.204;2023-06-22T02:59:43;23.80;58.50
49132;DHT22;35149;51.196;6.204;2023-06-22T03:02:14;23.80;58.10
49132;DHT22;35149;51.196;6.204;2023-06-22T03:04:47;23.80;58.30
49132;DHT22;35149;51.196;6.204;2023-06-22T03:07:20;23.70;58.40
49132;DHT22;35149;51.196;6.204;2023-06-22T03:09:51;23.70;58.50
49132;DHT22;35149;51.196;6.204;2023-06-22T03:12:22;23.70;58.60
49132;DHT22;35149;51.196;6.204;2023-06-22T03:14:52;23.70;58.60
49132;DHT22;35149;51.196;6.204;2023-06-22T03:17:24;23.80;58.00
49132;DHT22;35149;51.196;6.204;2023-06-22T03:19:51;23.70;58.50
49132;DHT22;35149;51.196;6.204;2023-06-22T03:22:19;23.70;58.30
49132;DHT22;35149;51.196;6.204;2023-06-22T03:24:45;23.60;58.30
49132;DHT22;35149;51.196;6.204;2023-06-22T03:27:14;23.60;58.70
49132;DHT22;35149;51.196;6.204;2023-06-22T03:29:41;23.60;58.80
49132;DHT22;35149;51.196;6.204;2023-06-22T03:32:07;23.60;58.90
49132;DHT22;35149;51.196;6.204;2023-06-22T03:34:34;23.50;58.90
49132;DHT22;35149;51.196;6.204;2023-06-22T03:37:02;23.50;58.80
49132;DHT22;35149;51.196;6.204;2023-06-22T03:39:32;23.50;59.00
49132;DHT22;35149;51.196;6.204;2023-06-22T03:41:58;23.50;59.30
49132;DHT22;35149;51.196;6.204;2023-06-22T03:44:36;23.50;59.30
49132;DHT22;35149;51.196;6.204;2023-06-22T03:47:06;23.40;59.60
49132;DHT22;35149;51.196;6.204;2023-06-22T03:49:35;23.50;59.50
49132;DHT22;35149;51.196;6.204;2023-06-22T03:52:05;23.50;59.50
49132;DHT22;35149;51.196;6.204;2023-06-22T03:54:32;23.50;59.30
49132;DHT22;35149;51.196;6.204;2023-06-22T03:56:58;23.50;59.70
49132;DHT22;35149;51.196;6.204;2023-06-22T03:59:27;23.50;59.80
49132;DHT22;35149;51.196;6.204;2023-06-22T04:02:00;23.50;59.60
49132;DHT22;35149;51.196;6.204;2023-06-22T04:04:31;23.50;59.70
49132;DHT22;35149;51.196;6.204;2023-06-22T04:06:58;23.50;59.40
49132;DHT22;35149;51.196;6.204;2023-06-22T04:09:27;23.60;59.40
49132;DHT22;35149;51.196;6.204;2023-06-22T04:11:53;23.50;59.60
49132;DHT22;35149;51.196;6.204;2023-06-22T04:14:20;23.60;59.60
49132;DHT22;35149;51.196;6.204;2023-06-22T04:16:49;23.60;59.60
49132;DHT22;35149;51.196;6.204;2023-06-22T04:19:16;23.60;59.60
49132;DHT22;35149;51.196;6.204;2023-06-22T04:21:44;23.60;59.60
49132;DHT22;35149;51.196;6.204;2023-06-22T04:24:11;23.70;59.60
49132;DHT22;35149;51.196;6.204;2023-06-22T04:26:38;23.70;59.50
49132;DHT22;35149;51.196;6.204;2023-06-22T04:29:08;23.70;59.40
49132;DHT22;35149;51.196;6.204;2023-06-22T04:31:35;23.80;59.30
49132;DHT22;35149;51.196;6.204;2023-06-22T04:34:06;23.80;59.30
49132;DHT22;35149;51.196;6.204;2023-06-22T04:36:41;23.80;59.30
49132;DHT22;35149;51.196;6.204;2023-06-22T04:39:09;23.80;59.70
49132;DHT22;35149;51.196;6.204;2023-06-22T04:41:40;23.90;59.50
49132;DHT22;35149;51.196;6.204;2023-06-22T04:44:16;23.90;60.20
49132;DHT22;35149;51.196;6.204;2023-06-22T04:46:58;23.90;60.30
49132;DHT22;35149;51.196;6.204;2023-06-22T04:49:30;24.00;59.90
49132;DHT22;35149;51.196;6.204;2023-06-22T04:52:01;24.00;59.50
49132;DHT22;35149;51.196;6.204;2023-06-22T04:54:28;24.00;59.30
49132;DHT22;35149;51.196;6.204;2023-06-22T04:56:54;24.00;59.20
49132;DHT22;35149;51.196;6.204;2023-06-22T04:59:24;24.00;59.00
49132;DHT22;35149;51.196;6.204;2023-06-22T05:02:00;24.00;59.10
49132;DHT22;35149;51.196;6.204;2023-06-22T05:04:28;24.00;59.10
49132;DHT22;35149;51.196;6.204;2023-06-22T05:06:59;24.00;59.00
49132;DHT22;35149;51.196;6.204;2023-06-22T05:09:26;24.00;59.10
49132;DHT22;35149;51.196;6.204;2023-06-22T05:11:53;24.10;59.00
49132;DHT22;35149;51.196;6.204;2023-06-22T05:14:20;24.10;59.10
49132;DHT22;35149;51.196;6.204;2023-06-22T05:16:48;24.10;59.20
49132;DHT22;35149;51.196;6.204;2023-06-22T05:19:15;24.10;59.10
49132;DHT22;35149;51.196;6.204;2023-06-22T05:21:41;24.10;59.20
49132;DHT22;35149;51.196;6.204;2023-06-22T05:24:08;24.20;59.20
49132;DHT22;35149;51.196;6.204;2023-06-22T05:26:35;24.20;59.30
49132;DHT22;35149;51.196;6.204;2023-06-22T05:29:03;24.20;59.40
49132;DHT22;35149;51.196;6.204;2023-06-22T05:31:29;24.20;59.80
49132;DHT22;35149;51.196;6.204;2023-06-22T05:33:56;24.20;59.50
49132;DHT22;35149;51.196;6.204;2023-06-22T05:36:23;24.20;59.50
49132;DHT22;35149;51.196;6.204;2023-06-22T05:38:52;24.30;59.30
49132;DHT22;35149;51.196;6.204;2023-06-22T05:41:19;24.30;59.50
49132;DHT22;35149;51.196;6.204;2023-06-22T05:43:46;24.30;59.60
49132;DHT22;35149;51.196;6.204;2023-06-22T05:46:12;24.30;59.60
49132;DHT22;35149;51.196;6.204;2023-06-22T05:48:39;24.30;59.70
49132;DHT22;35149;51.196;6.204;2023-06-22T05:51:06;24.30;59.40
49132;DHT22;35149;51.196;6.204;2023-06-22T05:53:32;24.30;59.30
49132;DHT22;35149;51.196;6.204;2023-06-22T05:55:59;24.30;59.60
49132;DHT22;35149;51.196;6.204;2023-06-22T05:58:25;24.30;60.00
49132;DHT22;35149;51.196;6.204;2023-06-22T06:00:52;24.30;60.60
49132;DHT22;35149;51.196;6.204;2023-06-22T06:03:19;24.30;60.40
49132;DHT22;35149;51.196;6.204;2023-06-22T06:05:45;24.30;60.40
49132;DHT22;35149;51.196;6.204;2023-06-22T06:08:12;24.40;60.50
49132;DHT22;35149;51.196;6.204;2023-06-22T06:10:39;24.30;60.70
49132;DHT22;35149;51.196;6.204;2023-06-22T06:13:06;24.30;60.80
49132;DHT22;35149;51.196;6.204;2023-06-22T06:15:34;24.30;60.70
49132;DHT22;35149;51.196;6.204;2023-06-22T06:18:00;24.30;61.00
49132;DHT22;35149;51.196;6.204;2023-06-22T06:20:29;24.30;60.80
49132;DHT22;35149;51.196;6.204;2023-06-22T06:22:56;24.30;61.00
49132;DHT22;35149;51.196;6.204;2023-06-22T06:25:23;24.30;61.10
49132;DHT22;35149;51.196;6.204;2023-06-22T06:27:51;24.20;61.40
49132;DHT22;35149;51.196;6.204;2023-06-22T06:30:18;24.30;61.50
49132;DHT22;35149;51.196;6.204;2023-06-22T06:32:46;24.20;61.40
49132;DHT22;35149;51.196;6.204;2023-06-22T06:35:14;24.20;61.40
49132;DHT22;35149;51.196;6.204;2023-06-22T06:37:51;24.20;61.60
49132;DHT22;35149;51.196;6.204;2023-06-22T06:40:18;24.20;62.30
49132;DHT22;35149;51.196;6.204;2023-06-22T06:42:47;24.20;61.80
49132;DHT22;35149;51.196;6.204;2023-06-22T06:45:18;24.20;61.90
49132;DHT22;35149;51.196;6.204;2023-06-22T06:47:45;24.20;61.80
49132;DHT22;35149;51.196;6.204;2023-06-22T06:50:12;24.20;61.70
49132;DHT22;35149;51.196;6.204;2023-06-22T06:52:39;24.10;62.00
49132;DHT22;35149;51.196;6.204;2023-06-22T06:55:06;24.10;62.20
49132;DHT22;35149;51.196;6.204;2023-06-22T06:57:38;24.10;62.40
49132;DHT22;35149;51.196;6.204;2023-06-22T07:00:07;24.20;61.90
49132;DHT22;35149;51.196;6.204;2023-06-22T07:02:41;24.20;62.50
49132;DHT22;35149;51.196;6.204;2023-06-22T07:05:10;24.20;63.00
49132;DHT22;35149;51.196;6.204;2023-06-22T07:07:37;24.30;63.10
49132;DHT22;35149;51.196;6.204;2023-06-22T07:10:06;24.30;62.70
49132;DHT22;35149;51.196;6.204;2023-06-22T07:12:33;24.40;62.70
49132;DHT22;35149;51.196;6.204;2023-06-22T07:15:07;24.50;62.80
49132;DHT22;35149;51.196;6.204;2023-06-22T07:17:35;24.50;63.10
49132;DHT22;35149;51.196;6.204;2023-06-22T07:20:09;24.50;62.60
49132;DHT22;35149;51.196;6.204;2023-06-22T07:22:41;24.50;62.50
49132;DHT22;35149;51.196;6.204;2023-06-22T07:25:11;24.60;62.40
49132;DHT22;35149;51.196;6.204;2023-06-22T07:27:46;24.60;62.30
49132;DHT22;35149;51.196;6.204;2023-06-22T07:30:22;24.60;62.40
49132;DHT22;35149;51.196;6.204;2023-06-22T07:32:49;24.70;62.40
49132;DHT22;35149;51.196;6.204;2023-06-22T07:35:16;24.70;62.80
49132;DHT22;35149;51.196;6.204;2023-06-22T07:37:43;24.70;63.10
49132;DHT22;35149;51.196;6.204;2023-06-22T07:40:10;24.70;62.80
49132;DHT22;35149;51.196;6.204;2023-06-22T07:42:37;24.70;62.80
49132;DHT22;35149;51.196;6.204;2023-06-22T07:45:04;24.80;62.80
49132;DHT22;35149;51.196;6.204;2023-06-22T07:47:32;24.80;62.90
49132;DHT22;35149;51.196;6.204;2023-06-22T07:50:03;24.80;62.80
49132;DHT22;35149;51.196;6.204;2023-06-22T07:52:30;24.90;62.80
49132;DHT22;35149;51.196;6.204;2023-06-22T07:54:57;25.00;62.90
49132;DHT22;35149;51.196;6.204;2023-06-22T07:57:24;25.10;62.70
49132;DHT22;35149;51.196;6.204;2023-06-22T07:59:59;25.10;62.90
49132;DHT22;35149;51.196;6.204;2023-06-22T08:02:27;25.30;62.50
49132;DHT22;35149;51.196;6.204;2023-06-22T08:04:53;25.30;62.20
49132;DHT22;35149;51.196;6.204;2023-06-22T08:07:36;25.50;62.30
49132;DHT22;35149;51.196;6.204;2023-06-22T08:10:05;25.60;61.90
49132;DHT22;35149;51.196;6.204;2023-06-22T08:12:31;25.70;61.20
49132;DHT22;35149;51.196;6.204;2023-06-22T08:15:01;25.80;60.90
49132;DHT22;35149;51.196;6.204;2023-06-22T08:17:27;26.00;60.90
49132;DHT22;35149;51.196;6.204;2023-06-22T08:19:54;26.10;60.80
49132;DHT22;35149;51.196;6.204;2023-06-22T08:22:21;26.20;60.20
49132;DHT22;35149;51.196;6.204;2023-06-22T08:24:47;26.30;59.90
49132;DHT22;35149;51.196;6.204;2023-06-22T08:27:16;26.40;59.80
49132;DHT22;35149;51.196;6.204;2023-06-22T08:29:44;26.50;59.60
49132;DHT22;35149;51.196;6.204;2023-06-22T08:32:14;26.60;59.20
49132;DHT22;35149;51.196;6.204;2023-06-22T08:34:41;26.70;59.20
49132;DHT22;35149;51.196;6.204;2023-06-22T08:37:09;26.80;58.60
49132;DHT22;35149;51.196;6.204;2023-06-22T08:39:35;26.90;58.40
49132;DHT22;35149;51.196;6.204;2023-06-22T08:42:02;26.90;58.30
49132;DHT22;35149;51.196;6.204;2023-06-22T08:44:29;27.00;58.20
49132;DHT22;35149;51.196;6.204;2023-06-22T08:46:56;27.00;58.40
49132;DHT22;35149;51.196;6.204;2023-06-22T08:49:22;27.10;58.20
49132;DHT22;35149;51.196;6.204;2023-06-22T08:51:49;27.20;57.80
49132;DHT22;35149;51.196;6.204;2023-06-22T08:54:16;27.30;57.30
49132;DHT22;35149;51.196;6.204;2023-06-22T08:56:42;27.30;56.80
49132;DHT22;35149;51.196;6.204;2023-06-22T08:59:10;27.40;56.90
49132;DHT22;35149;51.196;6.204;2023-06-22T09:01:37;27.50;56.70
49132;DHT22;35149;51.196;6.204;2023-06-22T09:04:04;27.50;56.80
49132;DHT22;35149;51.196;6.204;2023-06-22T09:06:32;27.60;56.50
49132;DHT22;35149;51.196;6.204;2023-06-22T09:08:59;27.70;56.80
49132;DHT22;35149;51.196;6.204;2023-06-22T09:11:28;27.70;56.60
49132;DHT22;35149;51.196;6.204;2023-06-22T09:13:55;27.80;56.50
49132;DHT22;35149;51.196;6.204;2023-06-22T09:16:22;27.90;56.20
49132;DHT22;35149;51.196;6.204;2023-06-22T09:18:49;28.00;55.90
49132;DHT22;35149;51.196;6.204;2023-06-22T09:21:15;28.10;55.60
49132;DHT22;35149;51.196;6.204;2023-06-22T09:23:42;28.10;55.50
49132;DHT22;35149;51.196;6.204;2023-06-22T09:26:09;28.20;55.60
49132;DHT22;35149;51.196;6.204;2023-06-22T09:28:36;28.20;55.70
49132;DHT22;35149;51.196;6.204;2023-06-22T09:31:04;28.20;55.70
49132;DHT22;35149;51.196;6.204;2023-06-22T09:33:30;28.20;55.60
49132;DHT22;35149;51.196;6.204;2023-06-22T09:35:57;28.20;55.60
49132;DHT22;35149;51.196;6.204;2023-06-22T09:38:24;28.30;56.10
49132;DHT22;35149;51.196;6.204;2023-06-22T09:40:50;28.40;55.90
49132;DHT22;35149;51.196;6.204;2023-06-22T09:43:17;28.40;55.40
49132;DHT22;35149;51.196;6.204;2023-06-22T09:45:44;28.50;55.60
49132;DHT22;35149;51.196;6.204;2023-06-22T09:48:11;28.60;54.40
49132;DHT22;35149;51.196;6.204;2023-06-22T09:50:38;28.60;54.50
49132;DHT22;35149;51.196;6.204;2023-06-22T09:53:05;28.70;54.40
49132;DHT22;35149;51.196;6.204;2023-06-22T09:55:31;28.70;54.10
49132;DHT22;35149;51.196;6.204;2023-06-22T09:58:05;28.80;54.20
49132;DHT22;35149;51.196;6.204;2023-06-22T10:00:32;28.90;54.00
49132;DHT22;35149;51.196;6.204;2023-06-22T10:02:58;28.90;53.90
49132;DHT22;35149;51.196;6.204;2023-06-22T10:05:27;29.00;54.00
49132;DHT22;35149;51.196;6.204;2023-06-22T10:07:54;29.00;53.70
49132;DHT22;35149;51.196;6.204;2023-06-22T10:10:21;29.00;53.30
49132;DHT22;35149;51.196;6.204;2023-06-22T10:12:57;29.00;53.20
49132;DHT22;35149;51.196;6.204;2023-06-22T10:15:29;29.10;53.00
49132;DHT22;35149;51.196;6.204;2023-06-22T10:17:56;29.00;53.10
49132;DHT22;35149;51.196;6.204;2023-06-22T10:20:23;28.90;52.90
49132;DHT22;35149;51.196;6.204;2023-06-22T10:22:50;28.80;52.90
49132;DHT22;35149;51.196;6.204;2023-06-22T10:25:17;28.70;53.00
49132;DHT22;35149;51.196;6.204;2023-06-22T10:27:44;28.60;53.50
49132;DHT22;35149;51.196;6.204;2023-06-22T10:30:12;28.50;53.80
49132;DHT22;35149;51.196;6.204;2023-06-22T10:32:40;28.40;54.20
49132;DHT22;35149;51.196;6.204;2023-06-22T10:35:08;28.40;54.40
49132;DHT22;35149;51.196;6.204;2023-06-22T10:37:35;28.30;55.50
49132;DHT22;35149;51.196;6.204;2023-06-22T10:40:02;28.20;55.70
49132;DHT22;35149;51.196;6.204;2023-06-22T10:42:30;28.20;56.60
49132;DHT22;35149;51.196;6.204;2023-06-22T10:44:57;28.10;57.90
49132;DHT22;35149;51.196;6.204;2023-06-22T10:47:23;28.00;57.70
49132;DHT22;35149;51.196;6.204;2023-06-22T10:49:52;28.00;58.40
49132;DHT22;35149;51.196;6.204;2023-06-22T10:52:19;28.00;58.90
49132;DHT22;35149;51.196;6.204;2023-06-22T10:54:46;27.90;58.40
49132;DHT22;35149;51.196;6.204;2023-06-22T10:57:15;27.90;58.20
49132;DHT22;35149;51.196;6.204;2023-06-22T10:59:42;27.90;59.10
49132;DHT22;35149;51.196;6.204;2023-06-22T11:02:09;27.80;60.00
49132;DHT22;35149;51.196;6.204;2023-06-22T11:04:35;27.80;59.90
49132;DHT22;35149;51.196;6.204;2023-06-22T11:07:02;27.70;60.30
49132;DHT22;35149;51.196;6.204;2023-06-22T11:09:29;27.70;60.40
49132;DHT22;35149;51.196;6.204;2023-06-22T11:11:56;27.60;59.80
49132;DHT22;35149;51.196;6.204;2023-06-22T11:14:25;27.50;60.30
49132;DHT22;35149;51.196;6.204;2023-06-22T11:16:52;27.40;60.40
49132;DHT22;35149;51.196;6.204;2023-06-22T11:19:19;27.40;60.20
49132;DHT22;35149;51.196;6.204;2023-06-22T11:21:48;27.30;60.40
49132;DHT22;35149;51.196;6.204;2023-06-22T11:24:15;27.20;60.80
49132;DHT22;35149;51.196;6.204;2023-06-22T11:26:42;27.20;61.20
49132;DHT22;35149;51.196;6.204;2023-06-22T11:29:09;27.10;61.70
49132;DHT22;35149;51.196;6.204;2023-06-22T11:31:49;27.00;61.80
49132;DHT22;35149;51.196;6.204;2023-06-22T11:34:16;27.00;62.60
49132;DHT22;35149;51.196;6.204;2023-06-22T11:36:42;27.00;62.70
49132;DHT22;35149;51.196;6.204;2023-06-22T11:39:10;27.10;62.80
49132;DHT22;35149;51.196;6.204;2023-06-22T11:41:42;27.10;63.00
49132;DHT22;35149;51.196;6.204;2023-06-22T11:44:09;27.10;62.60
49132;DHT22;35149;51.196;6.204;2023-06-22T11:46:35;27.20;63.20
49132;DHT22;35149;51.196;6.204;2023-06-22T11:49:02;27.30;63.60
49132;DHT22;35149;51.196;6.204;2023-06-22T11:51:29;27.40;63.80
49132;DHT22;35149;51.196;6.204;2023-06-22T11:53:58;27.60;63.40
49132;DHT22;35149;51.196;6.204;2023-06-22T11:56:25;27.80;63.20
49132;DHT22;35149;51.196;6.204;2023-06-22T11:58:56;27.90;62.80
49132;DHT22;35149;51.196;6.204;2023-06-22T12:01:23;28.10;61.80
49132;DHT22;35149;51.196;6.204;2023-06-22T12:03:49;28.20;61.20
49132;DHT22;35149;51.196;6.204;2023-06-22T12:06:17;28.20;61.10
49132;DHT22;35149;51.196;6.204;2023-06-22T12:08:44;28.20;60.70
49132;DHT22;35149;51.196;6.204;2023-06-22T12:11:11;28.30;61.00
49132;DHT22;35149;51.196;6.204;2023-06-22T12:13:37;28.30;61.20
49132;DHT22;35149;51.196;6.204;2023-06-22T12:16:06;28.30;60.30
49132;DHT22;35149;51.196;6.204;2023-06-22T12:18:33;28.30;59.80
49132;DHT22;35149;51.196;6.204;2023-06-22T12:21:00;28.20;59.90
49132;DHT22;35149;51.196;6.204;2023-06-22T12:23:27;28.20;59.70
49132;DHT22;35149;51.196;6.204;2023-06-22T12:25:53;28.10;59.80
49132;DHT22;35149;51.196;6.204;2023-06-22T12:28:20;28.00;59.90
49132;DHT22;35149;51.196;6.204;2023-06-22T12:30:47;27.90;60.00
49132;DHT22;35149;51.196;6.204;2023-06-22T12:33:14;27.90;60.40
49132;DHT22;35149;51.196;6.204;2023-06-22T12:35:40;27.80;60.90
49132;DHT22;35149;51.196;6.204;2023-06-22T12:38:07;27.80;61.00
49132;DHT22;35149;51.196;6.204;2023-06-22T12:40:34;27.90;61.10
49132;DHT22;35149;51.196;6.204;2023-06-22T12:43:01;28.00;61.40
49132;DHT22;35149;51.196;6.204;2023-06-22T12:45:28;28.10;61.60
49132;DHT22;35149;51.196;6.204;2023-06-22T12:47:58;28.20;60.80
49132;DHT22;35149;51.196;6.204;2023-06-22T12:50:24;28.30;60.60
49132;DHT22;35149;51.196;6.204;2023-06-22T12:52:51;28.40;60.30
49132;DHT22;35149;51.196;6.204;2023-06-22T12:55:18;28.50;60.10
49132;DHT22;35149;51.196;6.204;2023-06-22T12:57:45;28.50;59.50
49132;DHT22;35149;51.196;6.204;2023-06-22T13:00:12;28.40;58.70
49132;DHT22;35149;51.196;6.204;2023-06-22T13:02:38;28.40;59.00
49132;DHT22;35149;51.196;6.204;2023-06-22T13:05:06;28.40;59.10
49132;DHT22;35149;51.196;6.204;2023-06-22T13:07:32;28.30;58.80
49132;DHT22;35149;51.196;6.204;2023-06-22T13:10:00;28.30;58.70
49132;DHT22;35149;51.196;6.204;2023-06-22T13:12:26;28.20;59.00
49132;DHT22;35149;51.196;6.204;2023-06-22T13:14:53;28.10;59.10
49132;DHT22;35149;51.196;6.204;2023-06-22T13:17:23;28.00;59.10
49132;DHT22;35149;51.196;6.204;2023-06-22T13:19:49;27.90;59.00
49132;DHT22;35149;51.196;6.204;2023-06-22T13:22:33;27.90;59.00
49132;DHT22;35149;51.196;6.204;2023-06-22T13:25:06;27.80;59.30
49132;DHT22;35149;51.196;6.204;2023-06-22T13:27:33;27.60;59.20
49132;DHT22;35149;51.196;6.204;2023-06-22T13:30:00;27.50;59.50
49132;DHT22;35149;51.196;6.204;2023-06-22T13:32:26;27.40;59.60
49132;DHT22;35149;51.196;6.204;2023-06-22T13:34:55;27.40;59.70
49132;DHT22;35149;51.196;6.204;2023-06-22T13:37:22;27.30;59.90
49132;DHT22;35149;51.196;6.204;2023-06-22T13:39:49;27.20;59.80
49132;DHT22;35149;51.196;6.204;2023-06-22T13:42:15;27.10;59.80
49132;DHT22;35149;51.196;6.204;2023-06-22T13:44:42;27.10;60.30
49132;DHT22;35149;51.196;6.204;2023-06-22T13:47:09;27.10;60.60
49132;DHT22;35149;51.196;6.204;2023-06-22T13:49:35;27.10;60.90
49132;DHT22;35149;51.196;6.204;2023-06-22T13:52:02;27.10;61.10
49132;DHT22;35149;51.196;6.204;2023-06-22T13:54:30;27.10;61.30
49132;DHT22;35149;51.196;6.204;2023-06-22T13:57:00;27.10;61.10
49132;DHT22;35149;51.196;6.204;2023-06-22T13:59:26;27.10;60.70
49132;DHT22;35149;51.196;6.204;2023-06-22T14:01:54;27.10;60.30
49132;DHT22;35149;51.196;6.204;2023-06-22T14:04:23;27.00;60.10
49132;DHT22;35149;51.196;6.204;2023-06-22T14:06:50;27.00;60.30
49132;DHT22;35149;51.196;6.204;2023-06-22T14:09:17;26.90;60.50
49132;DHT22;35149;51.196;6.204;2023-06-22T14:11:43;26.80;61.30
49132;DHT22;35149;51.196;6.204;2023-06-22T14:14:10;26.70;61.00
49132;DHT22;35149;51.196;6.204;2023-06-22T14:16:36;26.70;61.30
49132;DHT22;35149;51.196;6.204;2023-06-22T14:19:03;26.60;61.30
49132;DHT22;35149;51.196;6.204;2023-06-22T14:21:30;26.60;61.70
49132;DHT22;35149;51.196;6.204;2023-06-22T14:23:57;26.50;61.10
49132;DHT22;35149;51.196;6.204;2023-06-22T14:26:23;26.40;61.20
49132;DHT22;35149;51.196;6.204;2023-06-22T14:28:50;26.40;61.50
49132;DHT22;35149;51.196;6.204;2023-06-22T14:31:18;26.30;61.30
49132;DHT22;35149;51.196;6.204;2023-06-22T14:33:49;26.20;61.50
49132;DHT22;35149;51.196;6.204;2023-06-22T14:36:16;26.20;61.70
49132;DHT22;35149;51.196;6.204;2023-06-22T14:38:46;26.10;61.70
49132;DHT22;35149;51.196;6.204;2023-06-22T14:41:13;26.00;61.80
49132;DHT22;35149;51.196;6.204;2023-06-22T14:43:47;25.90;62.00
49132;DHT22;35149;51.196;6.204;2023-06-22T14:46:18;25.80;62.10
49132;DHT22;35149;51.196;6.204;2023-06-22T14:48:45;25.80;62.50
49132;DHT22;35149;51.196;6.204;2023-06-22T14:51:12;25.70;62.70
49132;DHT22;35149;51.196;6.204;2023-06-22T14:53:46;25.60;62.80
49132;DHT22;35149;51.196;6.204;2023-06-22T14:56:13;25.60;63.10
49132;DHT22;35149;51.196;6.204;2023-06-22T14:58:44;25.50;63.10
49132;DHT22;35149;51.196;6.204;2023-06-22T15:01:15;25.50;63.30
49132;DHT22;35149;51.196;6.204;2023-06-22T15:03:43;25.40;63.60
49132;DHT22;35149;51.196;6.204;2023-06-22T15:06:10;25.30;64.30
49132;DHT22;35149;51.196;6.204;2023-06-22T15:08:40;25.30;63.80
49132;DHT22;35149;51.196;6.204;2023-06-22T15:11:07;25.20;64.00
49132;DHT22;35149;51.196;6.204;2023-06-22T15:13:37;25.10;64.30
49132;DHT22;35149;51.196;6.204;2023-06-22T15:16:05;25.10;64.40
49132;DHT22;35149;51.196;6.204;2023-06-22T15:18:32;25.00;64.70
49132;DHT22;35149;51.196;6.204;2023-06-22T15:21:03;24.90;65.00
49132;DHT22;35149;51.196;6.204;2023-06-22T15:23:30;24.90;65.20
49132;DHT22;35149;51.196;6.204;2023-06-22T15:25:58;24.80;65.30
49132;DHT22;35149;51.196;6.204;2023-06-22T15:28:25;24.70;65.40
49132;DHT22;35149;51.196;6.204;2023-06-22T15:30:52;24.60;65.60
49132;DHT22;35149;51.196;6.204;2023-06-22T15:33:19;24.60;65.90
49132;DHT22;35149;51.196;6.204;2023-06-22T15:35:46;24.60;66.20
49132;DHT22;35149;51.196;6.204;2023-06-22T15:38:15;24.50;66.50
49132;DHT22;35149;51.196;6.204;2023-06-22T15:40:42;24.40;66.70
49132;DHT22;35149;51.196;6.204;2023-06-22T15:43:11;24.40;67.10
49132;DHT22;35149;51.196;6.204;2023-06-22T15:45:40;24.30;67.30